Hauptseite
METAR-TAF:

METAR-TAF

Flughäfen :

Gafsa, Tunesien

Breite: 34-25N, Länge: 008-49E, Höhe: 313 m

Beobachtung

Neuester Wetterbericht von vor 16 Minuten, um 07:00 UTC
Wind 10 kt aus Ost/Nordost
Temperatur 6°C
Luftfeuchtigkeit 100%
Luftdruck 1023 hPa
Sichtweite: 6000 m
Leicht bewölkt in der Höhe von 1600 ft

METAR: DTTF 240700Z 06010KT 6000 FEW016 06/06 Q1023 NOSIG

Zeit: 08:16 (07:16 UTC)

Prognose

Neuester Wetterbericht von vor 1 Stunde und 16 Minuten, um 06:00 UTC
Gültige Prognose vom 24 um 07 UTC bis 24 um 16 UTC
Wind 11 kt aus Nord/Nordost
Sichtweite: 8000 m
Übergehend zu
vom 24 um 10 UTC bis 24 um 12 UTC
Wind 8 kt aus Nord/Nordwest
Sichtweite 10 km oder mehr
keine Wolken unter 1500 m und keine Kumulonimbus oder Gewitterwolken
Übergehend zu
vom 24 um 13 UTC bis 24 um 15 UTC
Wind 8 kt aus Süd/Südwest

TAF: DTTF 240600Z 2407/2416 03011KT 8000 NSC BECMG 2410/2412 34008KT CAVOK BECMG 2413/2415 21008KT

Wetterbeobachtungen und Prognosen von mehr als 4000 Flughäfen (METAR und TAF Bericht).

Die verfügbaren Stationen werden durch gelbe und rote Markierungen auf der Karte dargestellt.

Führen Sie die Maus auf sie, um den Namen der Station zu sehen.

Darauf klicken, um die Beobachtung von Wetterbeobachtungen und Prognosen zu sehen.

Um die Karte zu ändern : klicken Sie auf den grünen Tasten mit einem schwarzen Kreuz Zum Vergrößern, auf den grünen Button mit einem Gedankenstrich zu verkleinern, oder auf die grünen Pfeile für benachbarte Karten.


METAR-TAF: